Alcolu, South Carolina
Current Conditions -  °F | °C
As of 10:35 AM on Saturday 20 Dec 2014 (Local Time) from KSMS Reporting Station
Light Rain Light Rain  
Wind Chill: 46°   Ceiling: Unl
Heat Index: 46°   Visibility: 6mi
Dew Point: 45°   Wind: 0mph
Humidity: 93%   Direction: NA
Pressure: 30.26"   Gusts: NA
Location:  33.75°N, 80.21°W
Report Text: KSMS 201535Z AUTO 00000KT 6SM -RA SCT050 08/07 A3026 RMK AO2
Loading
Personal Weather Stations






























Interactive Weather Map New forecast layout! Learn more

10-Day Weather Forecast

Advertisements
Track Severe Weather on mobile